createdAt,value
2023-06-22T00:00:56.792Z,25.00
2023-06-22T00:01:56.744Z,25.00
2023-06-22T00:02:56.904Z,25.00
2023-06-22T00:03:56.867Z,0.00
2023-06-22T00:04:56.897Z,0.00
2023-06-22T00:05:56.919Z,0.00
2023-06-22T00:06:56.953Z,0.00
2023-06-22T00:07:56.975Z,0.00
2023-06-22T00:08:56.981Z,0.00
2023-06-22T00:09:57.021Z,11.12
2023-06-22T00:10:57.043Z,25.00
2023-06-22T00:11:57.062Z,26.10
2023-06-22T00:12:57.095Z,26.85
2023-06-22T00:13:57.162Z,25.00
2023-06-22T00:14:57.158Z,26.70
2023-06-22T00:15:57.200Z,25.36
2023-06-22T00:16:57.236Z,27.29
2023-06-22T00:17:57.361Z,26.28
2023-06-22T00:18:57.311Z,25.00
2023-06-22T00:19:57.353Z,28.48
2023-06-22T00:20:57.381Z,27.04
2023-06-22T00:21:57.413Z,26.12
2023-06-22T00:22:57.465Z,26.07
2023-06-22T00:23:57.496Z,25.19
2023-06-22T00:24:57.580Z,27.32
2023-06-22T00:25:57.583Z,25.00
2023-06-22T00:26:57.669Z,25.00
2023-06-22T00:27:57.669Z,28.82
2023-06-22T00:28:57.727Z,25.55
2023-06-22T00:29:57.785Z,25.00
2023-06-22T00:30:57.814Z,26.97
2023-06-22T00:31:57.829Z,26.41
2023-06-22T00:32:57.892Z,25.79
2023-06-22T00:33:57.896Z,28.37
2023-06-22T00:34:57.936Z,28.52
2023-06-22T00:35:57.970Z,26.28
2023-06-22T00:36:58.080Z,29.68
2023-06-22T00:37:58.028Z,26.94
2023-06-22T00:38:58.068Z,26.28
2023-06-22T00:39:58.091Z,25.99
2023-06-22T00:40:58.133Z,27.29
2023-06-22T00:41:58.171Z,25.47
2023-06-22T00:42:58.214Z,29.34
2023-06-22T00:43:58.245Z,28.38
2023-06-22T00:44:58.286Z,25.00
2023-06-22T00:45:58.346Z,27.09
2023-06-22T00:46:58.363Z,27.97
2023-06-22T00:47:58.464Z,26.33
2023-06-22T00:48:58.426Z,28.69
2023-06-22T00:49:58.467Z,27.68
2023-06-22T00:50:58.503Z,25.00
2023-06-22T00:51:58.546Z,28.66
2023-06-22T00:52:58.588Z,30.70
2023-06-22T00:53:58.633Z,28.05
2023-06-22T00:54:58.674Z,27.41
2023-06-22T00:55:58.713Z,28.30
2023-06-22T00:56:58.923Z,27.55
2023-06-22T00:57:58.802Z,31.91
2023-06-22T00:58:58.839Z,29.88
2023-06-22T00:59:58.884Z,26.33
2023-06-22T01:00:58.945Z,27.07
2023-06-22T01:01:59.010Z,28.00
2023-06-22T01:02:59.084Z,25.77
2023-06-22T01:03:59.267Z,28.07
2023-06-22T01:04:59.094Z,27.35
2023-06-22T01:05:59.134Z,25.36
2023-06-22T01:06:59.193Z,27.96
2023-06-22T01:07:59.226Z,30.90
2023-06-22T01:08:59.266Z,27.93
2023-06-22T01:09:59.312Z,28.93
2023-06-22T01:10:59.355Z,30.36
2023-06-22T01:11:59.392Z,31.89
2023-06-22T01:12:59.429Z,28.61
2023-06-22T01:13:59.470Z,26.85
2023-06-22T01:14:59.517Z,28.36
2023-06-22T01:15:59.546Z,27.15
2023-06-22T01:16:59.589Z,26.97
2023-06-22T01:17:59.801Z,26.86
2023-06-22T01:18:59.687Z,29.17
2023-06-22T01:19:59.727Z,30.65
2023-06-22T01:20:59.780Z,28.38
2023-06-22T01:21:59.797Z,26.26
2023-06-22T01:22:59.838Z,28.92
2023-06-22T01:23:59.878Z,29.66
2023-06-22T01:24:59.928Z,25.00
2023-06-22T01:25:59.971Z,30.79
2023-06-22T01:27:00.023Z,30.64
2023-06-22T01:28:00.043Z,28.37
2023-06-22T01:29:00.085Z,31.88
2023-06-22T01:30:00.153Z,28.69
2023-06-22T01:31:00.170Z,28.57
2023-06-22T01:32:00.278Z,30.09
2023-06-22T01:33:00.318Z,26.51
2023-06-22T01:34:00.327Z,30.53
2023-06-22T01:35:00.333Z,29.13
2023-06-22T01:36:00.384Z,29.39
2023-06-22T01:37:00.424Z,29.14
2023-06-22T01:38:00.473Z,28.36
2023-06-22T01:39:00.520Z,29.02
2023-06-22T01:40:00.560Z,25.80
2023-06-22T01:41:00.604Z,30.35
2023-06-22T01:42:00.644Z,28.93
2023-06-22T01:43:00.682Z,27.67
2023-06-22T01:44:00.719Z,29.79
2023-06-22T01:45:00.780Z,26.20
2023-06-22T01:46:00.821Z,26.42
2023-06-22T01:47:00.852Z,29.29
2023-06-22T01:48:00.989Z,25.72
2023-06-22T01:49:00.939Z,30.26
2023-06-22T01:50:01.127Z,26.67
2023-06-22T01:51:01.107Z,29.97
2023-06-22T01:52:01.093Z,25.00
2023-06-22T01:53:01.113Z,29.11
2023-06-22T01:54:01.157Z,25.01
2023-06-22T01:55:01.224Z,27.28
2023-06-22T01:56:01.230Z,28.18
2023-06-22T01:57:01.290Z,30.05
2023-06-22T01:58:01.314Z,27.65
2023-06-22T01:59:01.357Z,25.00
2023-06-22T02:00:01.408Z,33.60
2023-06-22T02:01:01.456Z,30.18
2023-06-22T02:02:01.674Z,28.31
2023-06-22T02:03:01.657Z,27.29
2023-06-22T02:04:01.661Z,29.13
2023-06-22T02:05:01.621Z,28.91
2023-06-22T02:06:01.712Z,30.51
2023-06-22T02:07:01.728Z,28.97
2023-06-22T02:08:01.747Z,31.43
2023-06-22T02:09:01.774Z,31.29
2023-06-22T02:10:01.834Z,28.34
2023-06-22T02:11:01.870Z,28.95
2023-06-22T02:12:01.917Z,25.03
2023-06-22T02:13:01.932Z,29.58
2023-06-22T02:14:01.962Z,30.56
2023-06-22T02:15:02.054Z,30.72
2023-06-22T02:16:02.054Z,29.25
2023-06-22T02:17:02.083Z,31.76
2023-06-22T02:18:02.159Z,27.73
2023-06-22T02:19:02.150Z,29.94
2023-06-22T02:20:02.184Z,25.05
2023-06-22T02:21:02.223Z,27.33
2023-06-22T02:22:02.295Z,29.44
2023-06-22T02:23:02.319Z,29.87
2023-06-22T02:24:02.384Z,29.76
2023-06-22T02:25:02.413Z,29.98
2023-06-22T02:26:02.436Z,28.55
2023-06-22T02:27:02.466Z,25.26
2023-06-22T02:28:02.517Z,27.97
2023-06-22T02:29:02.568Z,26.13
2023-06-22T02:30:02.597Z,28.73
2023-06-22T02:31:02.698Z,29.89
2023-06-22T02:32:02.674Z,28.35
2023-06-22T02:33:02.745Z,31.03
2023-06-22T02:34:02.780Z,29.39
2023-06-22T02:35:02.823Z,31.61
2023-06-22T02:36:02.875Z,28.14
2023-06-22T02:37:02.911Z,28.17
2023-06-22T02:38:02.989Z,28.43
2023-06-22T02:39:03.060Z,28.71
2023-06-22T02:40:03.046Z,28.84
2023-06-22T02:41:03.093Z,25.00
2023-06-22T02:42:03.136Z,29.36
2023-06-22T02:43:03.480Z,28.04
2023-06-22T02:44:03.212Z,27.22
2023-06-22T02:45:03.254Z,29.74
2023-06-22T02:46:03.305Z,25.33
2023-06-22T02:47:03.346Z,28.85
2023-06-22T02:48:03.464Z,27.80
2023-06-22T02:49:03.420Z,27.97
2023-06-22T02:50:03.469Z,27.20
2023-06-22T02:51:03.497Z,28.40
2023-06-22T02:52:03.539Z,32.36
2023-06-22T02:53:03.572Z,28.96
2023-06-22T02:54:03.639Z,29.86
2023-06-22T02:55:03.681Z,33.98
2023-06-22T02:56:03.711Z,31.72
2023-06-22T02:57:03.778Z,31.64
2023-06-22T02:58:03.808Z,27.15
2023-06-22T02:59:03.827Z,32.31
2023-06-22T03:00:03.869Z,31.45
2023-06-22T03:01:04.010Z,29.26
2023-06-22T03:02:03.956Z,30.82
2023-06-22T03:03:04.065Z,30.23
2023-06-22T03:04:04.196Z,29.85
2023-06-22T03:05:04.085Z,30.65
2023-06-22T03:06:04.182Z,27.92
2023-06-22T03:07:04.240Z,32.13
2023-06-22T03:08:04.222Z,28.26
2023-06-22T03:09:04.266Z,32.74
2023-06-22T03:10:04.330Z,30.93
2023-06-22T03:11:04.351Z,29.76
2023-06-22T03:12:04.395Z,30.58
2023-06-22T03:13:04.432Z,26.92
2023-06-22T03:14:04.478Z,27.00
2023-06-22T03:15:04.534Z,28.55
2023-06-22T03:16:04.556Z,27.89
2023-06-22T03:17:04.583Z,29.61
2023-06-22T03:18:04.703Z,28.12
2023-06-22T03:19:04.670Z,29.08
2023-06-22T03:20:04.707Z,28.28
2023-06-22T03:21:04.747Z,27.57
2023-06-22T03:22:04.806Z,29.45
2023-06-22T03:23:04.845Z,30.62
2023-06-22T03:24:04.884Z,28.57
2023-06-22T03:25:04.925Z,28.39
2023-06-22T03:26:05.057Z,28.79
2023-06-22T03:27:05.010Z,27.71
2023-06-22T03:28:05.052Z,29.72
2023-06-22T03:29:05.106Z,29.83
2023-06-22T03:30:05.158Z,30.86
2023-06-22T03:31:05.195Z,28.72
2023-06-22T03:32:05.268Z,26.86
2023-06-22T03:33:05.353Z,27.08
2023-06-22T03:34:05.313Z,28.64
2023-06-22T03:35:05.357Z,29.31
2023-06-22T03:36:05.406Z,30.05
2023-06-22T03:37:05.445Z,28.55
2023-06-22T03:38:05.493Z,27.15
2023-06-22T03:39:05.531Z,28.36
2023-06-22T03:40:05.569Z,25.00
2023-06-22T03:41:05.625Z,27.49
2023-06-22T03:42:05.705Z,30.24
2023-06-22T03:43:05.717Z,29.14
2023-06-22T03:44:05.763Z,30.49
2023-06-22T03:45:05.812Z,29.56
2023-06-22T03:46:05.873Z,32.16
2023-06-22T03:47:05.903Z,28.02
2023-06-22T03:48:06.112Z,29.79
2023-06-22T03:49:05.996Z,32.96
2023-06-22T03:50:06.047Z,29.41
2023-06-22T03:51:06.098Z,30.68
2023-06-22T03:52:06.144Z,28.75
2023-06-22T03:53:06.179Z,31.82
2023-06-22T03:54:06.228Z,28.03
2023-06-22T03:55:06.262Z,27.74
2023-06-22T03:56:06.354Z,26.55
2023-06-22T03:57:06.338Z,27.61
2023-06-22T03:58:06.406Z,31.92
2023-06-22T03:59:06.426Z,28.85
2023-06-22T04:00:06.465Z,28.95
2023-06-22T04:01:06.514Z,29.55
2023-06-22T04:02:06.540Z,29.44
2023-06-22T04:03:06.678Z,28.84
2023-06-22T04:04:06.696Z,29.10
2023-06-22T04:05:06.699Z,29.19
2023-06-22T04:06:06.676Z,27.83
2023-06-22T04:07:06.715Z,26.84
2023-06-22T04:08:06.756Z,29.16
2023-06-22T04:09:06.799Z,30.77
2023-06-22T04:10:06.834Z,26.64
2023-06-22T04:11:06.881Z,29.16
2023-06-22T04:12:06.915Z,33.41
2023-06-22T04:13:06.958Z,30.41
2023-06-22T04:14:07.034Z,27.33
2023-06-22T04:15:07.048Z,31.22
2023-06-22T04:16:07.084Z,28.33
2023-06-22T04:17:07.142Z,26.43
2023-06-22T04:18:07.223Z,26.96
2023-06-22T04:19:07.196Z,29.32
2023-06-22T04:20:07.241Z,30.17
2023-06-22T04:21:07.296Z,27.86
2023-06-22T04:22:07.329Z,29.71
2023-06-22T04:23:07.390Z,30.03
2023-06-22T04:24:07.405Z,29.42
2023-06-22T04:25:07.448Z,31.22
2023-06-22T04:26:07.511Z,31.26
2023-06-22T04:27:07.563Z,29.39
2023-06-22T04:28:07.577Z,29.55
2023-06-22T04:29:07.629Z,29.25
2023-06-22T04:30:07.690Z,30.47
2023-06-22T04:31:07.794Z,28.09
2023-06-22T04:32:07.769Z,31.52
2023-06-22T04:33:07.809Z,31.75
2023-06-22T04:34:07.874Z,28.42
2023-06-22T04:35:07.900Z,29.29
2023-06-22T04:36:07.977Z,30.65
2023-06-22T04:37:07.969Z,27.94
2023-06-22T04:38:08.005Z,29.13
2023-06-22T04:39:08.042Z,29.21
2023-06-22T04:40:08.096Z,28.09
2023-06-22T04:41:08.120Z,30.90
2023-06-22T04:42:08.163Z,31.30
2023-06-22T04:43:08.206Z,32.07
2023-06-22T04:44:08.253Z,27.78
2023-06-22T04:45:08.304Z,30.92
2023-06-22T04:46:08.358Z,30.76
2023-06-22T04:47:08.374Z,30.44
2023-06-22T04:48:08.469Z,28.75
2023-06-22T04:49:08.467Z,30.29
2023-06-22T04:50:08.520Z,25.00
2023-06-22T04:51:08.542Z,30.97
2023-06-22T04:52:08.659Z,28.91
2023-06-22T04:53:08.638Z,31.09
2023-06-22T04:54:08.696Z,31.28
2023-06-22T04:55:08.766Z,31.33
2023-06-22T04:56:08.768Z,30.98
2023-06-22T04:57:08.808Z,31.94
2023-06-22T04:58:08.849Z,29.68
2023-06-22T04:59:08.877Z,29.47
2023-06-22T05:00:08.918Z,30.55
2023-06-22T05:01:08.969Z,29.80
2023-06-22T05:02:09.102Z,30.03
2023-06-22T05:03:19.255Z,32.84
2023-06-22T05:04:09.266Z,32.94
2023-06-22T05:05:09.177Z,33.97
2023-06-22T05:06:09.121Z,34.29
2023-06-22T05:07:09.184Z,34.25
2023-06-22T05:08:09.160Z,30.38
2023-06-22T05:09:09.185Z,32.05
2023-06-22T05:10:09.188Z,35.57
2023-06-22T05:11:09.212Z,38.80
2023-06-22T05:12:11.360Z,38.09
2023-06-22T05:13:09.233Z,38.35
2023-06-22T05:14:09.259Z,38.52
2023-06-22T05:15:09.275Z,39.80
2023-06-22T05:16:09.293Z,41.22
2023-06-22T05:17:09.305Z,40.98
2023-06-22T05:18:09.469Z,38.97
2023-06-22T05:19:09.614Z,35.75
2023-06-22T05:20:09.401Z,40.05
2023-06-22T05:21:09.387Z,67.44
2023-06-22T05:22:09.405Z,69.44
2023-06-22T05:23:09.421Z,81.41
2023-06-22T05:24:09.451Z,91.70
2023-06-22T05:25:09.471Z,90.11
2023-06-22T05:26:09.516Z,107.09
2023-06-22T05:27:09.554Z,107.91
2023-06-22T05:28:09.557Z,118.74
2023-06-22T05:29:09.586Z,116.56
2023-06-22T05:30:09.620Z,120.71
2023-06-22T05:31:09.674Z,122.71
2023-06-22T05:32:09.666Z,117.77
2023-06-22T05:33:09.849Z,120.12
2023-06-22T05:34:10.229Z,125.82
2023-06-22T05:35:09.750Z,138.85
2023-06-22T05:36:09.775Z,143.13
2023-06-22T05:37:09.808Z,147.20
2023-06-22T05:38:09.836Z,148.68
2023-06-22T05:39:09.893Z,157.64
2023-06-22T05:40:09.891Z,168.99
2023-06-22T05:41:10.192Z,167.28
2023-06-22T05:42:11.121Z,170.36
2023-06-22T05:43:10.145Z,166.24
2023-06-22T05:44:10.188Z,168.19
2023-06-22T05:45:10.699Z,168.74
2023-06-22T05:46:10.375Z,166.14
2023-06-22T05:47:10.462Z,168.40
2023-06-22T05:48:11.465Z,167.31
2023-06-22T05:49:10.897Z,166.27
2023-06-22T05:50:13.476Z,158.48
2023-06-22T05:51:10.785Z,154.93
2023-06-22T05:52:10.821Z,147.77
2023-06-22T05:53:10.928Z,139.98
2023-06-22T05:54:10.889Z,138.40
2023-06-22T05:55:11.198Z,145.07
2023-06-22T05:56:11.203Z,141.48
2023-06-22T05:57:11.006Z,139.73
2023-06-22T05:58:11.012Z,131.87
2023-06-22T05:59:11.041Z,125.74
2023-06-22T06:00:11.076Z,123.38
2023-06-22T06:01:11.200Z,119.17
2023-06-22T06:02:11.197Z,119.85
2023-06-22T06:03:13.410Z,128.92
2023-06-22T06:04:14.535Z,129.14
2023-06-22T06:05:18.844Z,129.25
2023-06-22T06:06:11.725Z,129.18
2023-06-22T06:07:11.325Z,129.06
2023-06-22T06:08:14.670Z,124.19
2023-06-22T06:09:11.401Z,126.79
2023-06-22T06:10:11.607Z,123.91
2023-06-22T06:11:27.464Z,129.33
2023-06-22T06:12:11.472Z,129.21
2023-06-22T06:13:12.225Z,125.33
2023-06-22T06:14:11.622Z,119.82
2023-06-22T06:15:12.031Z,113.74
2023-06-22T06:16:11.896Z,116.94
2023-06-22T06:17:11.814Z,119.50
2023-06-22T06:18:11.862Z,124.50
2023-06-22T06:19:11.730Z,116.91
2023-06-22T06:20:11.738Z,106.66
2023-06-22T06:21:15.063Z,105.44
2023-06-22T06:22:11.799Z,105.85
2023-06-22T06:23:11.763Z,107.37
2023-06-22T06:24:11.845Z,109.31
2023-06-22T06:25:12.666Z,109.32
2023-06-22T06:26:12.231Z,102.89
2023-06-22T06:27:12.213Z,105.64
2023-06-22T06:28:11.989Z,111.16
2023-06-22T06:29:13.036Z,115.05
2023-06-22T06:30:12.217Z,114.69
2023-06-22T06:31:12.237Z,108.34
2023-06-22T06:32:12.034Z,104.71
2023-06-22T06:33:12.009Z,101.46
2023-06-22T06:34:12.106Z,102.69
2023-06-22T06:35:12.219Z,108.71
2023-06-22T06:36:12.292Z,108.11
2023-06-22T06:37:12.429Z,107.66
2023-06-22T06:38:12.468Z,102.52
2023-06-22T06:39:12.567Z,98.52
2023-06-22T06:40:12.757Z,95.34
2023-06-22T06:41:13.217Z,93.91
2023-06-22T06:42:12.934Z,103.60
2023-06-22T06:43:13.332Z,105.39
2023-06-22T06:44:13.079Z,105.93
2023-06-22T06:45:13.146Z,104.03
2023-06-22T06:46:13.356Z,100.65
2023-06-22T06:47:13.347Z,95.93
2023-06-22T06:48:13.777Z,93.41
2023-06-22T06:49:13.513Z,95.33
2023-06-22T06:50:13.619Z,95.28
2023-06-22T06:51:13.729Z,91.89
2023-06-22T06:52:15.248Z,93.93
2023-06-22T06:53:13.909Z,95.33
2023-06-22T06:54:21.388Z,98.60
2023-06-22T06:55:14.027Z,98.84
2023-06-22T06:56:14.259Z,99.21
2023-06-22T06:57:14.122Z,93.25
2023-06-22T06:58:14.134Z,89.22
2023-06-22T06:59:14.155Z,87.55
2023-06-22T07:00:14.520Z,84.90
2023-06-22T07:01:14.289Z,87.68
2023-06-22T07:02:14.282Z,86.41
2023-06-22T07:03:14.781Z,84.53
2023-06-22T07:04:14.314Z,83.88
2023-06-22T07:05:14.709Z,85.97
2023-06-22T07:06:14.771Z,86.89
2023-06-22T07:07:14.374Z,86.59
2023-06-22T07:08:15.118Z,88.48
2023-06-22T07:09:14.968Z,87.87
2023-06-22T07:10:14.446Z,87.43
2023-06-22T07:11:15.265Z,85.53
2023-06-22T07:12:14.856Z,84.07
2023-06-22T07:13:14.776Z,88.59
2023-06-22T07:14:14.541Z,88.45
2023-06-22T07:15:14.888Z,89.57
2023-06-22T07:16:16.168Z,86.49
2023-06-22T07:17:14.735Z,86.35
2023-06-22T07:18:15.217Z,81.70
2023-06-22T07:19:15.358Z,79.98
2023-06-22T07:20:15.000Z,81.42
2023-06-22T07:21:15.227Z,77.48
2023-06-22T07:22:15.165Z,78.23
2023-06-22T07:23:15.244Z,77.04
2023-06-22T07:24:15.378Z,76.42
2023-06-22T07:25:15.842Z,76.72
2023-06-22T07:26:15.920Z,78.76
2023-06-22T07:27:15.599Z,77.20
2023-06-22T07:28:15.747Z,78.02
2023-06-22T07:29:15.795Z,81.70
2023-06-22T07:30:15.926Z,81.52
2023-06-22T07:31:16.054Z,81.88
2023-06-22T07:32:16.085Z,81.89
2023-06-22T07:33:16.284Z,84.03
2023-06-22T07:34:16.268Z,85.49
2023-06-22T07:35:16.352Z,86.14
2023-06-22T07:36:16.731Z,86.41
2023-06-22T07:37:16.538Z,86.79
2023-06-22T07:38:16.752Z,86.15
2023-06-22T07:39:16.718Z,86.42
2023-06-22T07:40:16.835Z,85.41
2023-06-22T07:41:17.246Z,84.92
2023-06-22T07:42:16.995Z,89.02
2023-06-22T07:43:17.087Z,85.83
2023-06-22T07:44:17.194Z,86.12
2023-06-22T07:45:17.270Z,84.43
2023-06-22T07:46:17.748Z,85.45
2023-06-22T07:47:17.487Z,83.02
2023-06-22T07:48:17.578Z,79.89
2023-06-22T07:49:17.631Z,79.71
2023-06-22T07:50:17.727Z,81.31
2023-06-22T07:51:18.250Z,84.46
2023-06-22T07:52:17.900Z,91.51
2023-06-22T07:53:17.992Z,98.56
2023-06-22T07:54:18.245Z,103.36
2023-06-22T07:55:18.118Z,100.49
2023-06-22T07:56:18.313Z,96.31
2023-06-22T07:57:18.279Z,100.51
2023-06-22T07:58:18.276Z,102.93
2023-06-22T07:59:18.320Z,105.16
2023-06-22T08:00:18.392Z,101.39
2023-06-22T08:01:18.768Z,97.24
2023-06-22T08:02:18.544Z,92.05
2023-06-22T08:03:18.702Z,77.04
2023-06-22T08:04:18.632Z,69.34
2023-06-22T08:05:22.389Z,65.55
2023-06-22T08:06:18.894Z,66.21
2023-06-22T08:07:18.686Z,69.34
2023-06-22T08:08:18.718Z,75.79
2023-06-22T08:09:18.739Z,79.64
2023-06-22T08:10:18.752Z,96.70
2023-06-22T08:11:19.254Z,104.99
2023-06-22T08:12:18.861Z,109.01
2023-06-22T08:13:18.815Z,106.79
2023-06-22T08:14:18.853Z,109.08
2023-06-22T08:15:19.392Z,101.84
2023-06-22T08:16:18.936Z,90.50
2023-06-22T08:17:19.048Z,100.77
2023-06-22T08:18:19.041Z,92.08
2023-06-22T08:19:19.063Z,87.42
2023-06-22T08:20:19.089Z,84.88
2023-06-22T08:21:19.254Z,85.27
2023-06-22T08:22:19.178Z,90.31
2023-06-22T08:23:19.201Z,95.74
2023-06-22T08:24:19.235Z,101.31
2023-06-22T08:25:19.261Z,98.55
2023-06-22T08:26:19.760Z,94.91
2023-06-22T08:27:19.311Z,97.70
2023-06-22T08:28:19.356Z,97.73
2023-06-22T08:29:19.354Z,87.15
2023-06-22T08:30:19.364Z,89.20
2023-06-22T08:31:19.782Z,83.39
2023-06-22T08:32:19.592Z,80.26
2023-06-22T08:33:27.731Z,80.99
2023-06-22T08:34:19.430Z,81.33
2023-06-22T08:35:19.470Z,82.05
2023-06-22T08:36:19.754Z,82.58
2023-06-22T08:37:19.539Z,76.93
2023-06-22T08:38:19.449Z,84.20
2023-06-22T08:39:19.753Z,88.20
2023-06-22T08:40:19.478Z,88.51
2023-06-22T08:41:19.754Z,82.03
2023-06-22T08:42:19.486Z,76.56
2023-06-22T08:43:19.488Z,76.69
2023-06-22T08:44:19.597Z,79.14
2023-06-22T08:45:19.548Z,79.83
2023-06-22T08:46:19.760Z,80.95
2023-06-22T08:47:19.548Z,75.34
2023-06-22T08:48:19.583Z,73.10
2023-06-22T08:49:19.762Z,75.57
2023-06-22T08:50:19.602Z,82.63
2023-06-22T08:51:19.594Z,82.50
2023-06-22T08:52:19.577Z,84.76
2023-06-22T08:53:19.597Z,90.17
2023-06-22T08:54:19.784Z,94.20
2023-06-22T08:55:19.610Z,97.61
2023-06-22T08:56:19.610Z,99.84
2023-06-22T08:57:19.632Z,102.81
2023-06-22T08:58:19.686Z,101.53
2023-06-22T08:59:19.631Z,104.61
2023-06-22T09:00:19.819Z,104.95
2023-06-22T09:01:19.658Z,107.50
2023-06-22T09:02:19.685Z,108.69
2023-06-22T09:03:19.865Z,111.08
2023-06-22T09:04:19.868Z,111.27
2023-06-22T09:05:19.758Z,110.55
2023-06-22T09:06:19.807Z,110.28
2023-06-22T09:07:20.275Z,108.96
2023-06-22T09:08:19.728Z,109.91
2023-06-22T09:09:19.728Z,113.63
2023-06-22T09:10:19.865Z,112.30
2023-06-22T09:11:19.770Z,107.44
2023-06-22T09:12:19.744Z,108.45
2023-06-22T09:13:19.765Z,115.24
2023-06-22T09:14:19.751Z,109.59
2023-06-22T09:15:19.765Z,103.22
2023-06-22T09:16:20.293Z,100.61
2023-06-22T09:17:19.807Z,98.91
2023-06-22T09:18:19.781Z,96.51
2023-06-22T09:19:20.267Z,90.91
2023-06-22T09:20:19.980Z,89.64
2023-06-22T09:21:20.273Z,87.56
2023-06-22T09:22:19.966Z,86.04
2023-06-22T09:23:20.050Z,88.53
2023-06-22T09:24:20.082Z,87.66
2023-06-22T09:25:20.142Z,86.11
2023-06-22T09:26:19.275Z,84.32
2023-06-22T09:27:20.259Z,84.88
2023-06-22T09:28:20.366Z,82.83
2023-06-22T09:29:20.391Z,84.19
2023-06-22T09:30:20.436Z,85.66
2023-06-22T09:31:21.931Z,91.35
2023-06-22T09:32:20.817Z,95.02
2023-06-22T09:33:20.516Z,96.52
2023-06-22T09:34:20.515Z,94.51
2023-06-22T09:35:20.515Z,97.83
2023-06-22T09:36:20.783Z,102.68
2023-06-22T09:37:20.797Z,106.60
2023-06-22T09:38:20.542Z,111.44
2023-06-22T09:39:20.540Z,113.32
2023-06-22T09:40:20.544Z,115.35
2023-06-22T09:41:20.793Z,113.92
2023-06-22T09:42:20.557Z,115.15
2023-06-22T09:43:20.566Z,116.91
2023-06-22T09:44:20.577Z,116.74
2023-06-22T09:45:20.590Z,118.32
2023-06-22T09:46:20.585Z,120.26
2023-06-22T09:47:20.800Z,118.05
2023-06-22T09:48:20.638Z,122.64
2023-06-22T09:49:30.841Z,123.77
2023-06-22T09:50:20.656Z,124.26
2023-06-22T09:51:20.623Z,125.98
2023-06-22T09:52:22.416Z,128.36
2023-06-22T09:53:20.636Z,124.43
2023-06-22T09:54:20.652Z,125.87
2023-06-22T09:55:20.669Z,127.67
2023-06-22T09:56:20.815Z,130.46
2023-06-22T09:57:20.670Z,133.88
2023-06-22T09:58:20.688Z,129.16
2023-06-22T09:59:20.685Z,130.10
2023-06-22T10:00:20.714Z,133.62
2023-06-22T10:01:20.729Z,130.10
2023-06-22T10:02:20.896Z,131.41
2023-06-22T10:03:20.913Z,133.14
2023-06-22T10:04:20.985Z,132.55
2023-06-22T10:05:21.022Z,137.65
2023-06-22T10:06:20.760Z,138.85
2023-06-22T10:07:20.777Z,139.16
2023-06-22T10:08:20.795Z,140.54
2023-06-22T10:09:20.796Z,142.62
2023-06-22T10:10:20.789Z,138.51
2023-06-22T10:11:20.800Z,135.99
2023-06-22T10:12:20.801Z,139.05
2023-06-22T10:13:21.291Z,136.61
2023-06-22T10:14:20.828Z,135.78
2023-06-22T10:15:20.841Z,136.21
2023-06-22T10:16:21.290Z,132.21
2023-06-22T10:17:20.933Z,131.97
2023-06-22T10:18:21.000Z,128.01
2023-06-22T10:19:21.295Z,127.04
2023-06-22T10:20:21.179Z,123.20
2023-06-22T10:21:21.215Z,115.24
2023-06-22T10:22:21.302Z,112.45
2023-06-22T10:23:21.369Z,110.99
2023-06-22T10:24:21.803Z,110.14
2023-06-22T10:25:22.236Z,105.89
2023-06-22T10:26:22.166Z,100.99
2023-06-22T10:27:21.640Z,100.16
2023-06-22T10:28:21.715Z,99.17
2023-06-22T10:29:21.788Z,97.97
2023-06-22T10:30:21.854Z,98.24
2023-06-22T10:31:22.417Z,93.49
2023-06-22T10:32:22.030Z,88.09
2023-06-22T10:33:22.132Z,88.19
2023-06-22T10:34:22.153Z,88.11
2023-06-22T10:35:22.236Z,86.65
2023-06-22T10:36:22.326Z,89.85
2023-06-22T10:37:22.385Z,89.67
2023-06-22T10:38:22.467Z,84.72
2023-06-22T10:39:22.540Z,87.33
2023-06-22T10:40:22.606Z,89.92
2023-06-22T10:41:22.669Z,93.00
2023-06-22T10:42:22.731Z,93.48
2023-06-22T10:43:22.784Z,94.09
2023-06-22T10:44:22.861Z,98.03
2023-06-22T10:45:22.920Z,95.15
2023-06-22T10:46:23.303Z,100.35
2023-06-22T10:47:23.073Z,103.12
2023-06-22T10:48:23.141Z,100.34
2023-06-22T10:49:23.220Z,98.68
2023-06-22T10:50:23.286Z,99.07
2023-06-22T10:51:23.389Z,99.57
2023-06-22T10:52:23.496Z,104.39
2023-06-22T10:53:23.517Z,105.00
2023-06-22T10:54:23.583Z,108.52
2023-06-22T10:55:23.666Z,106.80
2023-06-22T10:56:23.741Z,102.32
2023-06-22T10:57:23.803Z,102.33
2023-06-22T10:58:23.873Z,105.14
2023-06-22T10:59:23.956Z,107.15
2023-06-22T11:00:24.017Z,104.73
2023-06-22T11:02:23.229Z,104.78
2023-06-22T11:03:24.163Z,104.95
2023-06-22T11:04:24.109Z,105.48
2023-06-22T11:05:24.311Z,104.84
2023-06-22T11:06:24.120Z,103.62
2023-06-22T11:07:24.134Z,106.07
2023-06-22T11:08:24.172Z,108.82
2023-06-22T11:09:27.508Z,107.23
2023-06-22T11:10:24.215Z,107.67
2023-06-22T11:11:24.155Z,109.72
2023-06-22T11:12:24.166Z,112.78
2023-06-22T11:13:24.171Z,116.54
2023-06-22T11:14:24.208Z,126.80
2023-06-22T11:15:24.197Z,127.26
2023-06-22T11:16:24.328Z,128.11
2023-06-22T11:17:24.206Z,125.92
2023-06-22T11:18:24.232Z,132.49
2023-06-22T11:19:24.200Z,137.58
2023-06-22T11:20:24.200Z,138.69
2023-06-22T11:21:24.207Z,136.46
2023-06-22T11:22:24.209Z,138.96
2023-06-22T11:23:24.212Z,138.77
2023-06-22T11:24:24.310Z,140.46
2023-06-22T11:25:24.217Z,132.96
2023-06-22T11:26:24.249Z,136.92
2023-06-22T11:27:24.229Z,134.12
2023-06-22T11:28:24.247Z,131.27
2023-06-22T11:29:36.645Z,121.91
2023-06-22T11:30:24.257Z,121.96
2023-06-22T11:31:26.632Z,117.23
2023-06-22T11:32:24.377Z,111.97
2023-06-22T11:33:24.267Z,107.65
2023-06-22T11:34:24.828Z,101.38
2023-06-22T11:35:24.241Z,97.33
2023-06-22T11:36:24.251Z,92.83
2023-06-22T11:37:24.825Z,92.71
2023-06-22T11:38:24.240Z,92.10
2023-06-22T11:39:33.322Z,85.95
2023-06-22T11:40:24.295Z,86.25
2023-06-22T11:41:24.244Z,86.83
2023-06-22T11:42:24.244Z,84.01
2023-06-22T11:43:24.260Z,86.27
2023-06-22T11:44:24.253Z,85.63
2023-06-22T11:45:24.254Z,85.60
2023-06-22T11:46:24.247Z,79.07
2023-06-22T11:47:24.270Z,83.13
2023-06-22T11:48:24.256Z,82.79
2023-06-22T11:49:24.256Z,81.92
2023-06-22T11:50:24.254Z,85.84
2023-06-22T11:51:24.254Z,88.23
2023-06-22T11:52:24.333Z,92.70
2023-06-22T11:53:24.253Z,81.91
2023-06-22T11:54:24.248Z,84.76
2023-06-22T11:55:24.258Z,84.70
2023-06-22T11:56:24.297Z,80.87
2023-06-22T11:57:24.269Z,78.05
2023-06-22T11:58:24.273Z,75.65
2023-06-22T11:59:24.274Z,82.06
2023-06-22T12:00:25.146Z,82.14
2023-06-22T12:01:24.269Z,82.21
2023-06-22T12:02:24.422Z,79.45
2023-06-22T12:03:24.417Z,73.08
2023-06-22T12:04:24.277Z,74.20
2023-06-22T12:05:24.265Z,76.14
2023-06-22T12:06:24.385Z,84.01
2023-06-22T12:07:24.257Z,73.02
2023-06-22T12:08:24.258Z,64.09
2023-06-22T12:09:24.257Z,68.32
2023-06-22T12:10:24.247Z,61.39
2023-06-22T12:11:24.330Z,59.73
2023-06-22T12:12:24.376Z,58.82
2023-06-22T12:13:24.238Z,58.09
2023-06-22T12:14:24.246Z,63.34
2023-06-22T12:15:24.255Z,65.51
2023-06-22T12:16:24.334Z,63.48
2023-06-22T12:17:24.223Z,59.78
2023-06-22T12:18:24.214Z,60.79
2023-06-22T12:19:24.216Z,53.29
2023-06-22T12:20:26.053Z,53.32
2023-06-22T12:21:24.216Z,49.79
2023-06-22T12:22:24.210Z,39.39
2023-06-22T12:23:24.191Z,49.65
2023-06-22T12:24:24.187Z,54.38
2023-06-22T12:25:24.183Z,52.91
2023-06-22T12:26:24.194Z,53.46
2023-06-22T12:27:24.204Z,51.23
2023-06-22T12:28:24.224Z,45.79
2023-06-22T12:29:24.184Z,36.86
2023-06-22T12:30:24.189Z,34.56
2023-06-22T12:31:24.234Z,33.77
2023-06-22T12:32:24.232Z,36.34
2023-06-22T12:33:24.174Z,40.37
2023-06-22T12:34:24.178Z,43.15
2023-06-22T12:35:24.191Z,38.82
2023-06-22T12:36:24.173Z,31.83
2023-06-22T12:37:24.153Z,36.03
2023-06-22T12:38:24.155Z,41.59
2023-06-22T12:39:24.154Z,46.97
2023-06-22T12:40:24.155Z,47.38
2023-06-22T12:41:24.185Z,40.71
2023-06-22T12:42:24.148Z,36.31
2023-06-22T12:43:24.130Z,29.89
2023-06-22T12:44:24.157Z,32.45
2023-06-22T12:45:24.178Z,32.49
2023-06-22T12:46:24.169Z,35.36
2023-06-22T12:47:24.155Z,25.00
2023-06-22T12:48:24.085Z,25.11